Rochdale, Mississippi
Current Conditions -  °F | °C
As of 6:55 PM on Saturday 22 Nov 2014 (Local Time) from KRNV Reporting Station
Clear Clear  
Wind Chill: 60°   Ceiling: Unl
Heat Index: 60°   Visibility: 10mi
Dew Point: 53°   Wind: 7mph
Humidity: 76%   Direction: 120°ESE
Pressure: 30.02"   Gusts: NA
Location:  34.0609°N, 90.7985°W
Report Text: KRNV 230055Z AUTO 12006KT 10SM CLR 16/12 A3002 RMK AO2 T01570115
Loading
Personal Weather Stations






























Interactive Weather Map New forecast layout! Learn more

10-Day Weather Forecast

Advertisements
Track Severe Weather on mobile